createdAt,value
2016-08-17T00:00:18.800Z,23.59
2016-08-17T00:01:18.832Z,23.68
2016-08-17T00:02:18.154Z,23.62
2016-08-17T00:03:18.882Z,23.51
2016-08-17T00:04:19.649Z,23.56
2016-08-17T00:05:19.650Z,23.51
2016-08-17T00:06:19.681Z,23.56
2016-08-17T00:07:18.287Z,23.54
2016-08-17T00:09:19.056Z,23.56
2016-08-17T00:10:19.085Z,23.55
2016-08-17T00:11:18.413Z,23.55
2016-08-17T00:12:18.449Z,23.58
2016-08-17T00:13:19.164Z,23.46
2016-08-17T00:14:34.082Z,23.54
2016-08-17T00:15:19.939Z,23.48
2016-08-17T00:16:18.540Z,23.56
2016-08-17T00:17:19.283Z,23.5
2016-08-17T00:18:20.013Z,23.51
2016-08-17T00:19:20.046Z,23.48
2016-08-17T00:20:20.078Z,23.48
2016-08-17T00:21:20.098Z,23.48
2016-08-17T00:22:19.415Z,23.48
2016-08-17T00:23:20.160Z,23.55
2016-08-17T00:24:20.188Z,23.48
2016-08-17T00:25:19.524Z,23.51
2016-08-17T00:26:18.815Z,23.46
2016-08-17T00:27:18.847Z,23.5
2016-08-17T00:28:20.303Z,23.32
2016-08-17T00:29:20.325Z,23.37
2016-08-17T00:30:19.643Z,23.39
2016-08-17T00:31:20.380Z,23.31
2016-08-17T00:32:19.696Z,23.4
2016-08-17T00:33:19.725Z,23.32
2016-08-17T00:34:19.750Z,23.4
2016-08-17T00:35:19.791Z,23.37
2016-08-17T00:36:19.819Z,23.36
2016-08-17T00:37:19.854Z,23.28
2016-08-17T00:38:20.581Z,23.43
2016-08-17T00:39:19.894Z,23.32
2016-08-17T00:40:19.938Z,23.36
2016-08-17T00:41:19.235Z,23.27
2016-08-17T00:42:19.267Z,23.37
2016-08-17T00:43:20.724Z,23.36
2016-08-17T00:44:20.767Z,23.28
2016-08-17T00:45:20.787Z,23.28
2016-08-17T00:46:20.092Z,23.24
2016-08-17T00:47:20.119Z,23.27
2016-08-17T00:48:20.149Z,23.23
2016-08-17T00:49:20.984Z,23.24
2016-08-17T00:50:20.197Z,23.24
2016-08-17T00:51:19.516Z,23.2
2016-08-17T00:52:20.256Z,23.18
2016-08-17T00:53:20.296Z,23.23
2016-08-17T00:54:20.312Z,23.21
2016-08-17T00:55:20.336Z,23.17
2016-08-17T00:56:20.366Z,23.21
2016-08-17T00:57:19.685Z,23.21
2016-08-17T00:58:19.725Z,23.23
2016-08-17T00:59:20.447Z,23.17
2016-08-17T01:00:20.484Z,23.15
2016-08-17T01:01:19.810Z,23.13
2016-08-17T01:02:19.828Z,23.12
2016-08-17T01:03:19.852Z,23.15
2016-08-17T01:04:19.881Z,23.05
2016-08-17T01:05:20.618Z,23.08
2016-08-17T01:06:20.647Z,23.05
2016-08-17T01:07:19.960Z,22.98
2016-08-17T01:08:20.699Z,23.03
2016-08-17T01:09:20.027Z,23
2016-08-17T01:10:20.757Z,22.96
2016-08-17T01:11:20.071Z,22.99
2016-08-17T01:12:21.524Z,23.02
2016-08-17T01:13:20.842Z,22.88
2016-08-17T01:14:20.867Z,22.84
2016-08-17T01:15:20.894Z,22.81
2016-08-17T01:16:20.234Z,22.85
2016-08-17T01:17:20.246Z,22.96
2016-08-17T01:18:21.690Z,22.87
2016-08-17T01:19:21.713Z,22.85
2016-08-17T01:20:21.034Z,22.84
2016-08-17T01:21:21.060Z,22.84
2016-08-17T01:22:21.087Z,22.91
2016-08-17T01:23:21.827Z,22.8
2016-08-17T01:24:21.166Z,22.81
2016-08-17T01:25:21.169Z,22.81
2016-08-17T01:26:20.490Z,22.75
2016-08-17T01:27:21.937Z,22.83
2016-08-17T01:28:20.539Z,22.8
2016-08-17T01:29:21.282Z,22.85
2016-08-17T01:30:20.600Z,22.8
2016-08-17T01:31:22.045Z,22.76
2016-08-17T01:32:20.666Z,22.73
2016-08-17T01:33:21.394Z,22.63
2016-08-17T01:34:20.708Z,22.62
2016-08-17T01:35:22.155Z,22.63
2016-08-17T01:36:22.188Z,22.68
2016-08-17T01:37:20.802Z,22.69
2016-08-17T01:38:20.817Z,22.6
2016-08-17T01:39:21.559Z,22.62
2016-08-17T01:40:21.600Z,22.6
2016-08-17T01:41:22.319Z,22.54
2016-08-17T01:42:22.359Z,22.59
2016-08-17T01:43:21.684Z,22.39
2016-08-17T01:44:21.696Z,22.5
2016-08-17T01:45:21.009Z,22.53
2016-08-17T01:46:22.466Z,22.5
2016-08-17T01:47:21.776Z,22.55
2016-08-17T01:48:21.099Z,22.51
2016-08-17T01:49:21.829Z,22.48
2016-08-17T01:50:22.569Z,22.48
2016-08-17T01:51:22.594Z,22.48
2016-08-17T01:52:21.913Z,22.54
2016-08-17T01:53:21.937Z,22.47
2016-08-17T01:54:21.968Z,22.51
2016-08-17T01:55:22.705Z,22.55
2016-08-17T01:56:22.033Z,22.54
2016-08-17T01:57:22.049Z,22.5
2016-08-17T01:58:22.786Z,22.53
2016-08-17T01:59:21.429Z,22.53
2016-08-17T02:00:22.129Z,22.63
2016-08-17T02:01:21.448Z,22.53
2016-08-17T02:02:22.191Z,22.45
2016-08-17T02:03:21.505Z,22.54
2016-08-17T02:04:22.250Z,22.59
2016-08-17T02:05:21.557Z,22.59
2016-08-17T02:06:22.298Z,22.62
2016-08-17T02:07:22.328Z,22.54
2016-08-17T02:08:21.642Z,22.57
2016-08-17T02:09:22.390Z,22.6
2016-08-17T02:10:22.408Z,22.57
2016-08-17T02:11:21.724Z,22.57
2016-08-17T02:12:22.467Z,22.54
2016-08-17T02:13:21.778Z,22.54
2016-08-17T02:14:22.514Z,22.55
2016-08-17T02:15:22.554Z,22.59
2016-08-17T02:16:21.855Z,22.62
2016-08-17T02:17:21.890Z,22.57
2016-08-17T02:18:21.913Z,22.65
2016-08-17T02:19:22.675Z,22.6
2016-08-17T02:20:23.390Z,22.54
2016-08-17T02:21:22.706Z,22.54
2016-08-17T02:22:22.020Z,22.57
2016-08-17T02:23:23.470Z,22.63
2016-08-17T02:24:22.079Z,22.6
2016-08-17T02:25:22.816Z,22.59
2016-08-17T02:26:22.846Z,22.57
2016-08-17T02:27:22.159Z,22.57
2016-08-17T02:28:22.189Z,22.62
2016-08-17T02:29:22.214Z,22.51
2016-08-17T02:30:22.948Z,22.48
2016-08-17T02:31:22.978Z,22.51
2016-08-17T02:32:22.296Z,22.51
2016-08-17T02:33:22.324Z,22.47
2016-08-17T02:34:23.060Z,22.45
2016-08-17T02:35:23.091Z,22.43
2016-08-17T02:36:23.833Z,22.41
2016-08-17T02:37:22.433Z,22.44
2016-08-17T02:38:23.173Z,22.45
2016-08-17T02:39:23.197Z,22.36
2016-08-17T02:40:23.941Z,22.38
2016-08-17T02:41:23.250Z,22.29
2016-08-17T02:42:23.279Z,22.33
2016-08-17T02:43:23.323Z,22.45
2016-08-17T02:44:23.358Z,22.38
2016-08-17T02:45:22.651Z,22.36
2016-08-17T02:46:22.675Z,22.35
2016-08-17T02:47:24.127Z,22.39
2016-08-17T02:48:23.443Z,22.29
2016-08-17T02:49:24.180Z,22.3
2016-08-17T02:50:23.502Z,22.3
2016-08-17T02:51:24.252Z,22.28
2016-08-17T02:52:23.555Z,22.33
2016-08-17T02:53:23.580Z,22.28
2016-08-17T02:54:23.612Z,22.28
2016-08-17T02:55:22.946Z,22.38
2016-08-17T02:56:22.952Z,22.29
2016-08-17T02:57:23.699Z,22.29
2016-08-17T02:58:24.426Z,22.3
2016-08-17T02:59:24.471Z,22.18
2016-08-17T03:00:23.792Z,22.22
2016-08-17T03:01:23.086Z,22.23
2016-08-17T03:02:24.544Z,22.2
2016-08-17T03:03:23.851Z,22.25
2016-08-17T03:04:23.878Z,22.23
2016-08-17T03:05:23.906Z,22.25
2016-08-17T03:06:23.935Z,22.18
2016-08-17T03:07:23.252Z,22.14
2016-08-17T03:08:23.998Z,22.14
2016-08-17T03:09:24.011Z,22.18
2016-08-17T03:10:24.052Z,22.06
2016-08-17T03:11:24.081Z,22.11
2016-08-17T03:12:24.094Z,22.13
2016-08-17T03:13:24.831Z,22.06
2016-08-17T03:14:24.149Z,22.11
2016-08-17T03:15:24.192Z,22.15
2016-08-17T03:16:24.213Z,22.2
2016-08-17T03:17:24.232Z,22.15
2016-08-17T03:18:23.545Z,22.13
2016-08-17T03:19:24.283Z,22.13
2016-08-17T03:20:24.312Z,22.1
2016-08-17T03:21:23.628Z,22.07
2016-08-17T03:22:25.073Z,22.07
2016-08-17T03:23:24.410Z,22.07
2016-08-17T03:24:24.422Z,22.04
2016-08-17T03:25:24.448Z,22.07
2016-08-17T03:26:25.185Z,22.02
2016-08-17T03:27:23.790Z,22.1
2016-08-17T03:28:25.238Z,21.99
2016-08-17T03:29:25.261Z,22
2016-08-17T03:30:25.295Z,22.07
2016-08-17T03:31:23.900Z,22.02
2016-08-17T03:32:23.935Z,21.92
2016-08-17T03:33:24.661Z,21.92
2016-08-17T03:34:24.688Z,21.98
2016-08-17T03:35:24.008Z,22.04
2016-08-17T03:36:24.043Z,21.99
2016-08-17T03:37:24.772Z,21.92
2016-08-17T03:38:24.088Z,21.95
2016-08-17T03:39:24.112Z,21.8
2016-08-17T03:40:24.865Z,21.8
2016-08-17T03:41:24.880Z,21.8
2016-08-17T03:42:24.904Z,21.82
2016-08-17T03:43:25.642Z,21.85
2016-08-17T03:44:24.251Z,21.77
2016-08-17T03:45:25.692Z,21.79
2016-08-17T03:46:25.014Z,21.77
2016-08-17T03:47:25.768Z,21.75
2016-08-17T03:48:25.068Z,21.76
2016-08-17T03:49:25.094Z,21.73
2016-08-17T03:50:24.418Z,21.76
2016-08-17T03:51:24.436Z,21.83
2016-08-17T03:52:25.174Z,21.75
2016-08-17T03:53:25.198Z,21.79
2016-08-17T03:54:25.237Z,21.75
2016-08-17T03:55:24.545Z,21.69
2016-08-17T03:56:25.284Z,21.75
2016-08-17T03:57:25.308Z,21.72
2016-08-17T03:58:25.331Z,21.72
2016-08-17T03:59:25.361Z,21.72
2016-08-17T04:00:25.386Z,21.67
2016-08-17T04:01:24.704Z,21.67
2016-08-17T04:02:26.154Z,21.61
2016-08-17T04:03:26.180Z,21.64
2016-08-17T04:04:25.506Z,21.6
2016-08-17T04:05:26.228Z,21.64
2016-08-17T04:06:24.841Z,21.62
2016-08-17T04:07:25.575Z,21.64
2016-08-17T04:08:26.313Z,21.61
2016-08-17T04:09:24.917Z,21.64
2016-08-17T04:10:25.654Z,21.64
2016-08-17T04:11:25.680Z,21.55
2016-08-17T04:12:25.718Z,21.61
2016-08-17T04:13:25.023Z,21.52
2016-08-17T04:14:25.760Z,21.51
2016-08-17T04:15:25.790Z,21.54
2016-08-17T04:16:25.813Z,21.57
2016-08-17T04:17:25.134Z,21.54
2016-08-17T04:18:25.878Z,21.48
2016-08-17T04:19:26.609Z,21.43
2016-08-17T04:20:25.219Z,21.45
2016-08-17T04:21:26.651Z,21.48
2016-08-17T04:22:25.975Z,21.48
2016-08-17T04:23:25.296Z,21.48
2016-08-17T04:24:26.746Z,21.4
2016-08-17T04:25:25.343Z,21.5
2016-08-17T04:26:26.088Z,21.4
2016-08-17T04:27:26.821Z,21.37
2016-08-17T04:28:26.870Z,21.36
2016-08-17T04:29:26.160Z,21.37
2016-08-17T04:30:25.478Z,21.35
2016-08-17T04:31:25.503Z,21.32
2016-08-17T04:32:26.241Z,21.3
2016-08-17T04:33:26.265Z,21.27
2016-08-17T04:34:25.584Z,21.3
2016-08-17T04:35:26.318Z,21.32
2016-08-17T04:36:25.661Z,21.32
2016-08-17T04:37:25.661Z,21.35
2016-08-17T04:38:27.110Z,21.27
2016-08-17T04:39:25.718Z,21.33
2016-08-17T04:40:26.450Z,21.27
2016-08-17T04:41:25.775Z,21.35
2016-08-17T04:42:26.503Z,21.29
2016-08-17T04:43:26.531Z,21.2
2016-08-17T04:44:25.879Z,21.22
2016-08-17T04:45:26.582Z,21.29
2016-08-17T04:46:25.900Z,21.3
2016-08-17T04:47:25.928Z,21.29
2016-08-17T04:48:25.959Z,21.24
2016-08-17T04:49:25.980Z,21.21
2016-08-17T04:50:26.724Z,21.24
2016-08-17T04:51:26.747Z,21.21
2016-08-17T04:52:27.487Z,21.24
2016-08-17T04:53:26.095Z,21.25
2016-08-17T04:54:27.549Z,21.24
2016-08-17T04:55:27.557Z,21.2
2016-08-17T04:56:26.876Z,21.27
2016-08-17T04:57:26.191Z,21.29
2016-08-17T04:58:26.218Z,21.32
2016-08-17T04:59:26.954Z,21.29
2016-08-17T05:00:26.979Z,21.24
2016-08-17T05:01:27.722Z,21.21
2016-08-17T05:02:27.031Z,21.32
2016-08-17T05:03:27.062Z,21.27
2016-08-17T05:04:27.087Z,21.24
2016-08-17T05:05:27.113Z,21.3
2016-08-17T05:06:26.429Z,21.21
2016-08-17T05:07:27.165Z,21.25
2016-08-17T05:08:27.191Z,21.25
2016-08-17T05:09:27.216Z,21.32
2016-08-17T05:10:26.538Z,21.3
2016-08-17T05:11:27.289Z,21.22
2016-08-17T05:12:27.298Z,21.29
2016-08-17T05:13:26.616Z,21.24
2016-08-17T05:14:26.641Z,21.2
2016-08-17T05:15:28.093Z,21.27
2016-08-17T05:16:27.407Z,21.2
2016-08-17T05:17:27.429Z,21.24
2016-08-17T05:18:27.453Z,21.27
2016-08-17T05:19:28.190Z,21.29
2016-08-17T05:20:26.797Z,21.24
2016-08-17T05:21:26.832Z,21.24
2016-08-17T05:22:28.272Z,21.24
2016-08-17T05:23:26.878Z,21.29
2016-08-17T05:24:26.921Z,21.17
2016-08-17T05:25:26.932Z,21.2
2016-08-17T05:26:26.971Z,21.18
2016-08-17T05:27:26.994Z,21.17
2016-08-17T05:28:27.720Z,21.11
2016-08-17T05:29:27.746Z,21.15
2016-08-17T05:30:27.062Z,21.22
2016-08-17T05:31:27.089Z,21.27
2016-08-17T05:32:27.111Z,21.2
2016-08-17T05:33:27.146Z,21.18
2016-08-17T05:34:27.876Z,21.17
2016-08-17T05:35:28.615Z,21.22
2016-08-17T05:36:27.220Z,21.17
2016-08-17T05:37:27.241Z,21.14
2016-08-17T05:38:27.984Z,21.14
2016-08-17T05:39:28.010Z,21.15
2016-08-17T05:40:28.049Z,21.15
2016-08-17T05:41:27.353Z,21.18
2016-08-17T05:42:27.377Z,21.12
2016-08-17T05:43:28.826Z,21.17
2016-08-17T05:44:27.430Z,21.15
2016-08-17T05:45:28.166Z,21.2
2016-08-17T05:46:28.193Z,21.18
2016-08-17T05:47:28.216Z,21.24
2016-08-17T05:48:27.559Z,21.27
2016-08-17T05:49:28.276Z,21.32
2016-08-17T05:50:29.020Z,21.24
2016-08-17T05:51:27.616Z,21.3
2016-08-17T05:52:28.361Z,21.27
2016-08-17T05:53:28.379Z,21.32
2016-08-17T05:54:27.698Z,21.3
2016-08-17T05:55:29.146Z,21.29
2016-08-17T05:56:29.182Z,21.33
2016-08-17T05:57:29.193Z,21.27
2016-08-17T05:58:28.515Z,21.32
2016-08-17T05:59:28.535Z,21.25
2016-08-17T06:00:27.851Z,21.25
2016-08-17T06:01:28.594Z,21.33
2016-08-17T06:02:27.917Z,21.3
2016-08-17T06:03:29.354Z,21.33
2016-08-17T06:04:28.693Z,21.27
2016-08-17T06:05:27.986Z,21.29
2016-08-17T06:06:28.010Z,21.3
2016-08-17T06:07:28.040Z,21.32
2016-08-17T06:08:28.776Z,21.32
2016-08-17T06:09:28.799Z,21.25
2016-08-17T06:10:29.539Z,21.32
2016-08-17T06:11:28.851Z,21.22
2016-08-17T06:12:28.909Z,21.3
2016-08-17T06:13:28.921Z,21.32
2016-08-17T06:14:28.933Z,21.3
2016-08-17T06:15:28.250Z,21.32
2016-08-17T06:16:29.697Z,21.24
2016-08-17T06:17:28.306Z,21.27
2016-08-17T06:18:28.341Z,21.32
2016-08-17T06:19:29.064Z,21.36
2016-08-17T06:20:29.094Z,21.35
2016-08-17T06:21:29.122Z,21.33
2016-08-17T06:22:29.856Z,21.32
2016-08-17T06:23:29.179Z,21.37
2016-08-17T06:24:29.203Z,21.46
2016-08-17T06:25:29.948Z,21.51
2016-08-17T06:26:28.543Z,21.48
2016-08-17T06:27:29.278Z,21.52
2016-08-17T06:28:29.305Z,21.55
2016-08-17T06:29:29.347Z,21.51
2016-08-17T06:30:30.075Z,21.52
2016-08-17T06:31:30.108Z,21.54
2016-08-17T06:32:29.407Z,21.58
2016-08-17T06:33:28.726Z,21.54
2016-08-17T06:34:29.477Z,21.46
2016-08-17T06:35:29.491Z,21.54
2016-08-17T06:36:29.527Z,21.52
2016-08-17T06:37:30.253Z,21.51
2016-08-17T06:38:30.275Z,21.5
2016-08-17T06:39:29.596Z,21.52
2016-08-17T06:40:29.622Z,21.43
2016-08-17T06:41:28.940Z,21.48
2016-08-17T06:42:29.679Z,21.54
2016-08-17T06:43:28.995Z,21.45
2016-08-17T06:44:29.730Z,21.5
2016-08-17T06:45:29.760Z,21.43
2016-08-17T06:46:29.783Z,21.58
2016-08-17T06:47:29.809Z,21.52
2016-08-17T06:48:29.127Z,21.6
2016-08-17T06:49:29.151Z,21.64
2016-08-17T06:50:29.194Z,21.6
2016-08-17T06:51:29.917Z,21.7
2016-08-17T06:52:30.652Z,21.67
2016-08-17T06:53:29.968Z,21.7
2016-08-17T06:54:29.996Z,21.64
2016-08-17T06:55:30.022Z,21.62
2016-08-17T06:56:29.341Z,21.67
2016-08-17T06:57:29.364Z,21.73
2016-08-17T06:58:30.110Z,21.76
2016-08-17T06:59:29.424Z,21.67
2016-08-17T07:00:29.450Z,21.73
2016-08-17T07:01:30.891Z,21.77
2016-08-17T07:02:30.207Z,21.7
2016-08-17T07:03:29.520Z,21.79
2016-08-17T07:04:30.972Z,21.8
2016-08-17T07:05:30.285Z,21.88
2016-08-17T07:06:30.316Z,21.91
2016-08-17T07:07:29.644Z,21.96
2016-08-17T07:08:30.386Z,21.96
2016-08-17T07:09:29.688Z,21.95
2016-08-17T07:10:31.152Z,21.99
2016-08-17T07:11:30.450Z,22.06
2016-08-17T07:12:29.767Z,22.06
2016-08-17T07:13:30.501Z,22.06
2016-08-17T07:14:31.254Z,22.17
2016-08-17T07:15:30.558Z,22.1
2016-08-17T07:16:30.582Z,22.2
2016-08-17T07:17:30.612Z,22.2
2016-08-17T07:18:31.356Z,22.32
2016-08-17T07:19:30.664Z,22.33
2016-08-17T07:20:31.401Z,22.28
2016-08-17T07:21:30.717Z,22.28
2016-08-17T07:22:30.751Z,22.38
2016-08-17T07:23:30.784Z,22.43
2016-08-17T07:24:31.511Z,22.41
2016-08-17T07:25:30.837Z,22.43
2016-08-17T07:26:30.853Z,22.48
2016-08-17T07:27:30.168Z,22.48
2016-08-17T07:28:30.909Z,22.54
2016-08-17T07:29:30.224Z,22.5
2016-08-17T07:30:30.963Z,22.5
2016-08-17T07:31:30.998Z,22.48
2016-08-17T07:32:31.020Z,22.48
2016-08-17T07:33:30.334Z,22.47
2016-08-17T07:34:30.381Z,22.51
2016-08-17T07:35:31.098Z,22.59
2016-08-17T07:36:30.466Z,22.63
2016-08-17T07:37:31.154Z,22.57
2016-08-17T07:38:31.193Z,22.63
2016-08-17T07:39:31.217Z,22.7
2016-08-17T07:40:30.524Z,22.78
2016-08-17T07:41:31.265Z,22.76
2016-08-17T07:42:31.291Z,22.69
2016-08-17T07:43:30.613Z,22.81
2016-08-17T07:44:30.651Z,22.76
2016-08-17T07:45:31.381Z,22.8
2016-08-17T07:46:31.410Z,22.78
2016-08-17T07:47:32.141Z,22.8
2016-08-17T07:48:30.744Z,22.8
2016-08-17T07:49:32.200Z,22.85
2016-08-17T07:50:30.814Z,22.88
2016-08-17T07:51:31.552Z,22.84
2016-08-17T07:52:30.866Z,22.85
2016-08-17T07:53:31.607Z,22.85
2016-08-17T07:54:30.917Z,22.98
2016-08-17T07:55:31.651Z,22.87
2016-08-17T07:56:31.677Z,22.94
2016-08-17T07:57:30.993Z,22.99
2016-08-17T07:58:32.450Z,22.96
2016-08-17T07:59:31.755Z,22.91
2016-08-17T08:00:31.783Z,22.98
2016-08-17T08:01:31.117Z,23.05
2016-08-17T08:02:31.176Z,23.02
2016-08-17T08:03:31.873Z,23.09
2016-08-17T08:04:31.901Z,23.15
2016-08-17T08:05:32.633Z,23.12
2016-08-17T08:06:31.951Z,23.12
2016-08-17T08:07:31.977Z,23.2
2016-08-17T08:08:32.010Z,23.12
2016-08-17T08:09:32.743Z,23.21
2016-08-17T08:10:32.067Z,23.21
2016-08-17T08:11:32.793Z,23.24
2016-08-17T08:12:32.123Z,23.21
2016-08-17T08:13:32.856Z,23.27
2016-08-17T08:14:32.171Z,23.28
2016-08-17T08:15:32.199Z,23.36
2016-08-17T08:16:32.939Z,23.32
2016-08-17T08:17:32.983Z,23.34
2016-08-17T08:18:31.572Z,23.39
2016-08-17T08:19:31.602Z,23.34
2016-08-17T08:20:32.337Z,23.34
2016-08-17T08:21:31.671Z,23.39
2016-08-17T08:22:32.393Z,23.51
2016-08-17T08:23:32.425Z,23.47
2016-08-17T08:24:32.447Z,23.44
2016-08-17T08:25:32.478Z,23.56
2016-08-17T08:26:33.352Z,23.61
2016-08-17T08:27:33.239Z,23.51
2016-08-17T08:28:33.270Z,23.59
2016-08-17T08:29:32.600Z,23.61
2016-08-17T08:30:33.323Z,23.62
2016-08-17T08:31:32.644Z,23.69
2016-08-17T08:32:32.674Z,23.76
2016-08-17T08:33:31.992Z,23.74
2016-08-17T08:34:33.436Z,23.8
2016-08-17T08:35:32.047Z,23.84
2016-08-17T08:36:32.124Z,23.84
2016-08-17T08:37:32.814Z,23.92
2016-08-17T08:38:32.844Z,23.95
2016-08-17T08:39:32.159Z,23.98
2016-08-17T08:40:32.917Z,23.99
2016-08-17T08:41:32.926Z,23.95
2016-08-17T08:42:32.949Z,23.98
2016-08-17T08:43:32.270Z,24.05
2016-08-17T08:44:32.309Z,24.14
2016-08-17T08:45:33.743Z,24.26
2016-08-17T08:46:32.358Z,24.21
2016-08-17T08:47:32.384Z,24.35
2016-08-17T08:48:33.122Z,24.4
2016-08-17T08:49:33.173Z,24.35
2016-08-17T08:50:33.181Z,24.23
2016-08-17T08:51:32.499Z,24.16
2016-08-17T08:52:32.528Z,24.29
2016-08-17T08:53:32.551Z,24.35
2016-08-17T08:54:33.293Z,24.3
2016-08-17T08:55:33.322Z,24.32
2016-08-17T08:56:33.351Z,24.42
2016-08-17T08:57:33.378Z,24.43
2016-08-17T08:58:33.404Z,24.51
2016-08-17T08:59:33.438Z,24.48
2016-08-17T09:00:32.767Z,24.43
2016-08-17T09:01:33.493Z,24.51
2016-08-17T09:02:33.526Z,24.57
2016-08-17T09:03:34.259Z,24.53
2016-08-17T09:04:33.585Z,24.54
2016-08-17T09:05:33.606Z,24.65
2016-08-17T09:06:33.633Z,24.65
2016-08-17T09:07:34.404Z,24.61
2016-08-17T09:08:34.407Z,24.69
2016-08-17T09:09:33.030Z,24.68
2016-08-17T09:10:34.459Z,24.69
2016-08-17T09:11:33.780Z,24.63
2016-08-17T09:12:33.096Z,24.76
2016-08-17T09:13:33.837Z,24.7
2016-08-17T09:14:34.595Z,24.63
2016-08-17T09:15:33.895Z,24.61
2016-08-17T09:16:33.922Z,24.61
2016-08-17T09:17:34.663Z,24.68
2016-08-17T09:18:33.980Z,24.69
2016-08-17T09:19:34.012Z,24.69
2016-08-17T09:20:33.331Z,24.85
2016-08-17T09:21:34.064Z,24.86
2016-08-17T09:22:34.108Z,24.91
2016-08-17T09:23:34.121Z,24.89
2016-08-17T09:24:34.171Z,24.95
2016-08-17T09:25:33.469Z,25.04
2016-08-17T09:26:34.211Z,24.96
2016-08-17T09:27:34.238Z,25.03
2016-08-17T09:28:34.977Z,25.1
2016-08-17T09:29:33.598Z,25.14
2016-08-17T09:30:35.038Z,25.18
2016-08-17T09:31:34.354Z,25.17
2016-08-17T09:32:34.388Z,25.17
2016-08-17T09:33:34.415Z,25.26
2016-08-17T09:34:34.445Z,25.23
2016-08-17T09:35:34.469Z,25.35
2016-08-17T09:36:33.790Z,25.33
2016-08-17T09:37:34.527Z,25.36
2016-08-17T09:38:34.563Z,25.44
2016-08-17T09:39:34.586Z,25.47
2016-08-17T09:40:34.633Z,25.54
2016-08-17T09:41:35.356Z,25.68
2016-08-17T09:42:33.991Z,25.73
2016-08-17T09:43:34.706Z,25.73
2016-08-17T09:44:34.734Z,25.72
2016-08-17T09:45:34.764Z,25.84
2016-08-17T09:46:34.084Z,25.9
2016-08-17T09:47:35.566Z,25.91
2016-08-17T09:48:35.565Z,26.05
2016-08-17T09:49:34.881Z,25.96
2016-08-17T09:50:34.208Z,26.09
2016-08-17T09:51:35.659Z,25.96
2016-08-17T09:52:34.261Z,26.13
2016-08-17T09:53:34.998Z,26.13
2016-08-17T09:54:34.317Z,26.09
2016-08-17T09:55:34.347Z,26.1
2016-08-17T09:56:35.087Z,26.13
2016-08-17T09:57:35.143Z,26.29
2016-08-17T09:58:35.158Z,26.33
2016-08-17T09:59:35.175Z,26.28
2016-08-17T10:00:35.917Z,26.38
2016-08-17T10:01:35.237Z,26.37
2016-08-17T10:02:35.990Z,26.38
2016-08-17T10:03:35.296Z,26.47
2016-08-17T10:04:35.331Z,26.38
2016-08-17T10:05:34.652Z,26.37
2016-08-17T10:06:35.391Z,26.36
2016-08-17T10:07:36.126Z,26.51
2016-08-17T10:08:35.456Z,26.58
2016-08-17T10:09:35.476Z,26.48
2016-08-17T10:10:34.794Z,26.34
2016-08-17T10:11:35.533Z,26.47
2016-08-17T10:12:36.280Z,26.52
2016-08-17T10:13:34.882Z,26.63
2016-08-17T10:14:34.921Z,26.66
2016-08-17T10:15:34.947Z,26.66
2016-08-17T10:16:35.692Z,26.75
2016-08-17T10:17:35.005Z,26.73
2016-08-17T10:18:36.454Z,26.93
2016-08-17T10:19:35.776Z,26.93
2016-08-17T10:20:35.807Z,26.99
2016-08-17T10:21:35.843Z,27.05
2016-08-17T10:22:35.868Z,27.03
2016-08-17T10:23:36.604Z,27.07
2016-08-17T10:24:36.649Z,27.1
2016-08-17T10:25:35.957Z,27.12
2016-08-17T10:26:35.277Z,27.18
2016-08-17T10:27:36.017Z,27.26
2016-08-17T10:28:35.342Z,27.26
2016-08-17T10:29:36.794Z,27.25
2016-08-17T10:30:35.396Z,27.26
2016-08-17T10:31:35.446Z,27.25
2016-08-17T10:32:36.175Z,27.3
2016-08-17T10:33:36.196Z,27.26
2016-08-17T10:34:36.939Z,27.25
2016-08-17T10:35:36.975Z,27.25
2016-08-17T10:36:36.293Z,27.3
2016-08-17T10:37:35.615Z,27.29
2016-08-17T10:38:36.367Z,27.35
2016-08-17T10:39:37.100Z,27.39
2016-08-17T10:40:37.131Z,27.42
2016-08-17T10:41:36.443Z,27.44
2016-08-17T10:42:36.475Z,27.51
2016-08-17T10:43:37.222Z,27.55
2016-08-17T10:44:36.534Z,27.59
2016-08-17T10:45:35.863Z,27.55
2016-08-17T10:46:36.605Z,27.67
2016-08-17T10:47:36.628Z,27.68
2016-08-17T10:48:37.366Z,27.68
2016-08-17T10:49:35.981Z,27.58
2016-08-17T10:50:36.012Z,27.67
2016-08-17T10:51:36.749Z,27.65
2016-08-17T10:52:36.073Z,27.71
2016-08-17T10:53:36.812Z,27.71
2016-08-17T10:54:36.871Z,27.74
2016-08-17T10:55:36.878Z,27.74
2016-08-17T10:56:36.912Z,27.82
2016-08-17T10:57:36.224Z,27.82
2016-08-17T10:58:36.991Z,27.92
2016-08-17T10:59:36.285Z,27.85
2016-08-17T11:00:37.031Z,27.8
2016-08-17T11:01:37.059Z,27.93
2016-08-17T11:02:37.102Z,27.95
2016-08-17T11:03:37.122Z,27.92
2016-08-17T11:04:36.464Z,27.9
2016-08-17T11:05:36.473Z,27.9
2016-08-17T11:06:37.936Z,28.05
2016-08-17T11:07:37.240Z,28.04
2016-08-17T11:08:37.277Z,28.01
2016-08-17T11:09:37.317Z,28.1
2016-08-17T11:10:37.336Z,28.04
2016-08-17T11:11:36.672Z,27.96
2016-08-17T11:12:37.406Z,27.93
2016-08-17T11:13:36.719Z,27.93
2016-08-17T11:14:37.463Z,27.82
2016-08-17T11:15:36.780Z,27.86
2016-08-17T11:16:36.812Z,27.73
2016-08-17T11:17:38.263Z,27.71
2016-08-17T11:18:36.875Z,27.71
2016-08-17T11:19:36.907Z,27.65
2016-08-17T11:20:37.656Z,27.65
2016-08-17T11:21:37.682Z,27.6
2016-08-17T11:22:36.995Z,27.49
2016-08-17T11:23:38.443Z,27.49
2016-08-17T11:24:37.782Z,27.52
2016-08-17T11:25:37.089Z,27.48
2016-08-17T11:26:37.830Z,27.55
2016-08-17T11:27:38.593Z,27.58
2016-08-17T11:28:37.887Z,27.73
2016-08-17T11:29:37.213Z,27.68
2016-08-17T11:30:37.244Z,27.74
2016-08-17T11:31:37.271Z,27.67
2016-08-17T11:32:38.026Z,27.59
2016-08-17T11:33:38.045Z,27.45
2016-08-17T11:34:37.374Z,27.4
2016-08-17T11:35:38.818Z,27.44
2016-08-17T11:36:37.427Z,27.42
2016-08-17T11:37:38.875Z,27.6
2016-08-17T11:38:38.211Z,27.74
2016-08-17T11:39:37.522Z,27.7
2016-08-17T11:40:38.975Z,27.83
2016-08-17T11:41:38.292Z,27.93
2016-08-17T11:42:37.619Z,27.98
2016-08-17T11:43:39.062Z,27.98
2016-08-17T11:44:38.406Z,28.1
2016-08-17T11:45:38.415Z,28.11
2016-08-17T11:46:38.454Z,28.17
2016-08-17T11:47:37.762Z,28.14
2016-08-17T11:48:39.218Z,28.12
2016-08-17T11:49:37.833Z,28.29
2016-08-17T11:50:37.870Z,28.26
2016-08-17T11:51:38.603Z,28.2
2016-08-17T11:52:38.634Z,28.27
2016-08-17T11:53:37.955Z,28.44
2016-08-17T11:54:38.695Z,28.38
2016-08-17T11:55:39.436Z,28.38
2016-08-17T11:56:38.053Z,28.51
2016-08-17T11:57:38.076Z,28.54
2016-08-17T11:58:38.818Z,28.57
2016-08-17T11:59:38.851Z,28.63
2016-08-17T12:00:39.606Z,28.69
2016-08-17T12:01:39.622Z,28.67
2016-08-17T12:02:39.659Z,28.84
2016-08-17T12:03:38.976Z,28.81
2016-08-17T12:04:39.005Z,28.78
2016-08-17T12:05:39.034Z,28.79
2016-08-17T12:06:39.066Z,28.88
2016-08-17T12:07:38.393Z,28.91
2016-08-17T12:08:39.139Z,29.02
2016-08-17T12:09:39.163Z,29.02
2016-08-17T12:10:39.213Z,29.07
2016-08-17T12:11:39.941Z,29.14
2016-08-17T12:12:39.263Z,29.13
2016-08-17T12:13:38.575Z,28.98
2016-08-17T12:14:38.612Z,29.07
2016-08-17T12:15:38.647Z,29.1
2016-08-17T12:16:39.392Z,29.22
2016-08-17T12:17:39.426Z,29.19
2016-08-17T12:18:39.449Z,29.2
2016-08-17T12:19:40.187Z,29.26
2016-08-17T12:20:39.525Z,29.22
2016-08-17T12:21:38.832Z,29.14
2016-08-17T12:22:39.582Z,29.04
2016-08-17T12:23:39.605Z,28.96
2016-08-17T12:24:38.934Z,28.84
2016-08-17T12:25:39.672Z,28.86
2016-08-17T12:26:38.996Z,28.79
2016-08-17T12:27:40.444Z,28.81
2016-08-17T12:28:39.055Z,28.72
2016-08-17T12:29:39.818Z,28.81
2016-08-17T12:30:39.826Z,28.7
2016-08-17T12:31:39.865Z,28.72
2016-08-17T12:32:39.896Z,28.67
2016-08-17T12:33:39.934Z,28.7
2016-08-17T12:34:39.957Z,28.67
2016-08-17T12:35:40.695Z,28.75
2016-08-17T12:36:40.018Z,28.79
2016-08-17T12:37:40.763Z,28.82
2016-08-17T12:38:40.788Z,28.79
2016-08-17T12:39:40.110Z,28.7
2016-08-17T12:40:40.857Z,28.69
2016-08-17T12:41:40.175Z,28.67
2016-08-17T12:42:40.932Z,28.67
2016-08-17T12:43:40.947Z,28.47
2016-08-17T12:44:40.265Z,28.51
2016-08-17T12:45:40.302Z,28.51
2016-08-17T12:46:39.623Z,28.51
2016-08-17T12:47:41.072Z,28.66
2016-08-17T12:48:39.685Z,28.66
2016-08-17T12:49:40.434Z,28.75
2016-08-17T12:50:40.468Z,28.84
2016-08-17T12:51:40.491Z,28.72
2016-08-17T12:52:40.529Z,28.82
2016-08-17T12:53:41.259Z,28.84
2016-08-17T12:54:40.590Z,28.76
2016-08-17T12:55:39.900Z,28.81
2016-08-17T12:56:39.934Z,28.82